Time;durP1;ratioP1;P1;durP2;ratioP2;P2;SDS_P1;SDS_P2;PMS_P1;PMS_P2;Temp;Humidity;BMP_temperature;BMP_pressure;BME280_temperature;BME280_humidity;BME280_pressure;Samples;Min_cycle;Max_cycle;Signal;HPM_P1;HPM_P2
2022/06/22 00:04:29;;;;;;;6.38;2.75;;;;;;;;;;10460942;28;20210;-71
2022/06/22 00:09:32;;;;;;;3.00;2.55;;;;;;;;;;10462029;28;20266;-70
2022/06/22 00:14:42;;;;;;;6.07;2.60;;;;;;;;;;10459677;28;20280;-71
2022/06/22 00:19:43;;;;;;;3.03;2.28;;;;;;;;;;10465553;28;20198;-72
2022/06/22 00:24:44;;;;;;;6.57;2.42;;;;;;;;;;10463646;28;20212;-71
2022/06/22 00:29:47;;;;;;;6.45;2.50;;;;;;;;;;10465445;28;20257;-72
2022/06/22 00:34:48;;;;;;;9.77;2.42;;;;;;;;;;10481177;28;20957;-71
2022/06/22 00:39:52;;;;;;;4.55;2.75;;;;;;;;;;10467569;28;20215;-71
2022/06/22 00:45:04;;;;;;;8.35;3.03;;;;;;;;;;10463598;28;20187;-71
2022/06/22 00:50:11;;;;;;;4.35;2.88;;;;;;;;;;10466493;28;20285;-71
2022/06/22 00:55:17;;;;;;;6.85;2.47;;;;;;;;;;10463200;28;20185;-71
2022/06/22 01:00:21;;;;;;;4.80;3.72;;;;;;;;;;10454537;28;20713;-70
2022/06/22 01:05:30;;;;;;;5.53;3.20;;;;;;;;;;10485529;28;20175;-71
2022/06/22 01:10:44;;;;;;;10.98;2.53;;;;;;;;;;10467471;28;20243;-71
2022/06/22 01:15:49;;;;;;;2.63;2.47;;;;;;;;;;10466340;28;20194;-71
2022/06/22 01:20:56;;;;;;;3.60;2.63;;;;;;;;;;10466413;28;20182;-71
2022/06/22 01:25:58;;;;;;;3.13;2.85;;;;;;;;;;10470155;28;20222;-71
2022/06/22 01:31:04;;;;;;;5.07;3.42;;;;;;;;;;10471108;28;20683;-70
2022/06/22 01:36:18;;;;;;;8.38;3.25;;;;;;;;;;10490103;28;20214;-71
2022/06/22 01:41:37;;;;;;;4.88;2.80;;;;;;;;;;10469605;28;20197;-70
2022/06/22 01:46:50;;;;;;;5.38;2.60;;;;;;;;;;10468472;28;20201;-71
2022/06/22 01:51:53;;;;;;;7.32;2.63;;;;;;;;;;10465037;28;20616;-71
2022/06/22 01:56:54;;;;;;;5.47;2.20;;;;;;;;;;10465430;28;20210;-71
2022/06/22 02:02:11;;;;;;;3.55;2.42;;;;;;;;;;10463951;28;20720;-71
2022/06/22 02:07:44;;;;;;;8.90;2.92;;;;;;;;;;10469641;28;20757;-71
2022/06/22 02:12:52;;;;;;;5.78;2.88;;;;;;;;;;10467658;28;20582;-70
2022/06/22 02:17:54;;;;;;;6.38;2.55;;;;;;;;;;10465293;28;20202;-71
2022/06/22 02:23:18;;;;;;;8.30;3.45;;;;;;;;;;10468178;28;20186;-70
2022/06/22 02:28:20;;;;;;;5.50;2.97;;;;;;;;;;10453378;28;20861;-70
2022/06/22 02:33:21;;;;;;;3.65;2.85;;;;;;;;;;10472595;28;20210;-70
2022/06/22 02:38:22;;;;;;;4.78;2.90;;;;;;;;;;10460252;28;20206;-70
2022/06/22 02:48:46;;;;;;;6.25;2.50;;;;;;;;;;10464141;28;20253;-70
2022/06/22 02:53:48;;;;;;;4.18;2.85;;;;;;;;;;10469614;28;20667;-70
2022/06/22 02:58:49;;;;;;;4.63;2.65;;;;;;;;;;10463470;28;21521;-71
2022/06/22 03:03:55;;;;;;;3.83;2.20;;;;;;;;;;10474128;28;21107;-70
2022/06/22 03:08:58;;;;;;;5.63;2.70;;;;;;;;;;10466774;28;20214;-71
2022/06/22 03:14:22;;;;;;;2.92;2.72;;;;;;;;;;10462835;28;20190;-69
2022/06/22 03:19:42;;;;;;;3.58;2.42;;;;;;;;;;10466181;28;20213;-70
2022/06/22 03:24:50;;;;;;;4.13;2.92;;;;;;;;;;10463299;28;20201;-70
2022/06/22 03:30:00;;;;;;;4.15;3.67;;;;;;;;;;10463519;28;20226;-71
2022/06/22 03:35:03;;;;;;;4.70;3.75;;;;;;;;;;10458684;28;20276;-70
2022/06/22 03:40:08;;;;;;;4.15;3.85;;;;;;;;;;10468843;28;20258;-71
2022/06/22 03:45:20;;;;;;;4.93;3.63;;;;;;;;;;10460365;28;20198;-70
2022/06/22 03:50:21;;;;;;;8.32;3.85;;;;;;;;;;10466992;28;20263;-70
2022/06/22 03:55:25;;;;;;;4.72;4.07;;;;;;;;;;10458088;28;20601;-70
2022/06/22 04:00:26;;;;;;;4.28;3.80;;;;;;;;;;10456776;28;20186;-70
2022/06/22 04:05:30;;;;;;;5.18;4.10;;;;;;;;;;10481190;28;20198;-70
2022/06/22 04:10:40;;;;;;;4.82;4.40;;;;;;;;;;10443691;28;20210;-72
2022/06/22 04:15:45;;;;;;;6.57;4.10;;;;;;;;;;10451070;28;21243;-72
2022/06/22 04:20:52;;;;;;;9.68;4.28;;;;;;;;;;10454154;28;20269;-72
2022/06/22 04:25:56;;;;;;;7.05;4.50;;;;;;;;;;10448538;28;20207;-72
2022/06/22 04:30:58;;;;;;;5.28;3.97;;;;;;;;;;10440376;28;20221;-72
2022/06/22 04:36:11;;;;;;;8.77;5.15;;;;;;;;;;10471191;28;20210;-72
2022/06/22 04:41:30;;;;;;;4.90;4.57;;;;;;;;;;10470007;28;20629;-72
2022/06/22 04:46:33;;;;;;;5.15;4.75;;;;;;;;;;10466994;28;20206;-72
2022/06/22 04:51:36;;;;;;;7.13;4.47;;;;;;;;;;10463222;28;20224;-72
2022/06/22 04:56:39;;;;;;;4.13;3.70;;;;;;;;;;10469260;28;20632;-72
2022/06/22 05:01:45;;;;;;;5.05;3.67;;;;;;;;;;10457580;28;20218;-72
2022/06/22 05:06:51;;;;;;;4.45;2.72;;;;;;;;;;10447914;28;20198;-72
2022/06/22 05:11:52;;;;;;;2.53;2.28;;;;;;;;;;10463717;28;20214;-72
2022/06/22 05:16:57;;;;;;;2.38;2.22;;;;;;;;;;10467721;28;20191;-72
2022/06/22 05:21:58;;;;;;;8.45;2.45;;;;;;;;;;10464508;28;20265;-72
2022/06/22 05:27:01;;;;;;;6.47;2.83;;;;;;;;;;10470795;28;20264;-73
2022/06/22 05:32:04;;;;;;;3.17;2.75;;;;;;;;;;10452900;28;20247;-73
2022/06/22 05:37:21;;;;;;;6.63;2.67;;;;;;;;;;10446371;28;20207;-72
2022/06/22 05:42:24;;;;;;;4.20;2.38;;;;;;;;;;10474627;28;20174;-72
2022/06/22 05:47:30;;;;;;;3.47;2.17;;;;;;;;;;10473053;28;20201;-73
2022/06/22 05:52:40;;;;;;;2.10;1.98;;;;;;;;;;10470428;28;20205;-72
2022/06/22 05:58:05;;;;;;;2.97;2.75;;;;;;;;;;10463490;28;20202;-72
2022/06/22 06:03:13;;;;;;;1.95;1.77;;;;;;;;;;10465225;28;20217;-72
2022/06/22 06:08:18;;;;;;;3.38;2.17;;;;;;;;;;10466882;28;20201;-72
2022/06/22 06:13:25;;;;;;;3.28;2.10;;;;;;;;;;10472899;28;20466;-72
2022/06/22 06:18:30;;;;;;;4.40;2.50;;;;;;;;;;10473395;28;20198;-72
2022/06/22 06:23:36;;;;;;;2.88;2.78;;;;;;;;;;10468525;28;20170;-73
2022/06/22 06:28:57;;;;;;;5.30;4.57;;;;;;;;;;10473915;28;20271;-73
2022/06/22 06:33:59;;;;;;;7.30;2.22;;;;;;;;;;10475774;28;20218;-72
2022/06/22 06:39:06;;;;;;;2.58;2.38;;;;;;;;;;10468501;28;20217;-72
2022/06/22 06:44:14;;;;;;;6.72;1.98;;;;;;;;;;10464264;28;20174;-73
2022/06/22 06:49:20;;;;;;;4.28;1.60;;;;;;;;;;10473190;28;20348;-73
2022/06/22 06:54:24;;;;;;;3.22;2.08;;;;;;;;;;10462417;28;20454;-74
2022/06/22 06:59:27;;;;;;;6.22;2.03;;;;;;;;;;10473495;28;20212;-74
2022/06/22 07:04:30;;;;;;;2.38;1.20;;;;;;;;;;10469654;28;20228;-73
2022/06/22 07:09:36;;;;;;;3.20;1.20;;;;;;;;;;10472934;28;20662;-71
2022/06/22 07:14:40;;;;;;;3.05;1.30;;;;;;;;;;10467157;28;20945;-72
2022/06/22 07:19:55;;;;;;;1.58;0.70;;;;;;;;;;10468607;28;20689;-72
2022/06/22 07:25:06;;;;;;;1.90;0.63;;;;;;;;;;10469479;28;20549;-72
2022/06/22 07:30:16;;;;;;;2.00;0.73;;;;;;;;;;10465885;28;20230;-72
2022/06/22 07:35:24;;;;;;;3.15;0.70;;;;;;;;;;10470293;28;20245;-72
2022/06/22 07:40:28;;;;;;;0.47;0.47;;;;;;;;;;10485812;28;20221;-72
2022/06/22 07:45:30;;;;;;;1.45;0.75;;;;;;;;;;10471708;28;20182;-72
2022/06/22 07:50:33;;;;;;;0.85;0.77;;;;;;;;;;10470293;28;20206;-72
2022/06/22 07:55:39;;;;;;;1.40;0.50;;;;;;;;;;10471043;28;20174;-71
2022/06/22 08:00:41;;;;;;;1.63;0.80;;;;;;;;;;10462769;28;20324;-71
2022/06/22 08:05:43;;;;;;;2.58;1.00;;;;;;;;;;10454950;28;20189;-72
2022/06/22 08:10:47;;;;;;;1.58;0.68;;;;;;;;;;10470252;28;20220;-72
2022/06/22 08:15:51;;;;;;;0.65;0.65;;;;;;;;;;10478059;28;20285;-71
2022/06/22 08:20:53;;;;;;;2.75;1.08;;;;;;;;;;10473962;28;20186;-71
2022/06/22 08:25:54;;;;;;;1.05;0.80;;;;;;;;;;10480154;28;20684;-72
2022/06/22 08:30:56;;;;;;;0.95;0.60;;;;;;;;;;10470406;28;20401;-71
2022/06/22 08:35:59;;;;;;;4.40;0.70;;;;;;;;;;10490308;28;20185;-71
2022/06/22 08:41:21;;;;;;;0.47;0.47;;;;;;;;;;10474747;28;20175;-72
2022/06/22 08:46:41;;;;;;;0.82;0.60;;;;;;;;;;10471303;28;20196;-71
2022/06/22 08:51:42;;;;;;;1.33;0.60;;;;;;;;;;10476225;28;20210;-72
2022/06/22 08:56:52;;;;;;;0.70;0.70;;;;;;;;;;10479529;28;20194;-71
2022/06/22 09:02:14;;;;;;;0.70;0.70;;;;;;;;;;10487682;27;20245;-72
2022/06/22 09:07:21;;;;;;;1.35;0.70;;;;;;;;;;10472789;28;20197;-71
2022/06/22 09:12:33;;;;;;;1.55;0.60;;;;;;;;;;10467660;28;20202;-71
2022/06/22 09:17:53;;;;;;;0.50;0.50;;;;;;;;;;10472179;28;20206;-71
2022/06/22 09:22:58;;;;;;;1.98;0.50;;;;;;;;;;10469546;28;20209;-72
2022/06/22 09:28:04;;;;;;;1.17;0.70;;;;;;;;;;10477007;28;20908;-72
2022/06/22 09:33:26;;;;;;;0.82;0.80;;;;;;;;;;10468282;28;20239;-72
2022/06/22 09:38:43;;;;;;;0.65;0.60;;;;;;;;;;10472310;28;20206;-72
2022/06/22 09:43:50;;;;;;;0.93;0.50;;;;;;;;;;10472635;28;20182;-73
2022/06/22 09:49:06;;;;;;;0.40;0.40;;;;;;;;;;10474397;28;20194;-72
2022/06/22 09:59:57;;;;;;;0.55;0.50;;;;;;;;;;10472505;28;20247;-73
2022/06/22 10:05:06;;;;;;;1.30;0.50;;;;;;;;;;10479562;28;20217;-72
2022/06/22 10:10:20;;;;;;;2.40;0.60;;;;;;;;;;10472586;28;20203;-71
2022/06/22 10:15:34;;;;;;;1.80;0.60;;;;;;;;;;10477329;28;20183;-71
2022/06/22 10:20:49;;;;;;;2.92;0.65;;;;;;;;;;10473265;28;20289;-73
2022/06/22 10:26:09;;;;;;;1.58;0.75;;;;;;;;;;10466315;28;20186;-72
2022/06/22 10:31:29;;;;;;;1.10;0.55;;;;;;;;;;10470950;28;20286;-72
2022/06/22 10:36:45;;;;;;;1.17;0.52;;;;;;;;;;10472518;28;20581;-73
2022/06/22 10:47:24;;;;;;;0.95;0.45;;;;;;;;;;10475912;28;20248;-73
2022/06/22 10:52:44;;;;;;;0.68;0.45;;;;;;;;;;10458728;28;20206;-72
2022/06/22 10:58:00;;;;;;;0.40;0.40;;;;;;;;;;10475092;28;20201;-73
2022/06/22 11:03:19;;;;;;;0.70;0.55;;;;;;;;;;10476478;28;20217;-73
2022/06/22 11:08:22;;;;;;;1.77;0.52;;;;;;;;;;10467423;28;20198;-73
2022/06/22 11:13:29;;;;;;;1.70;0.70;;;;;;;;;;10473156;28;20202;-72
2022/06/22 11:18:51;;;;;;;0.43;0.43;;;;;;;;;;10463108;28;20603;-73
2022/06/22 11:23:52;;;;;;;1.65;0.50;;;;;;;;;;10472183;28;20178;-73
2022/06/22 11:34:28;;;;;;;0.60;0.60;;;;;;;;;;10485493;28;21056;-73
2022/06/22 11:39:47;;;;;;;1.80;0.50;;;;;;;;;;10463755;28;20210;-73
2022/06/22 11:50:35;;;;;;;1.65;0.50;;;;;;;;;;10463042;28;20214;-73
2022/06/22 11:55:39;;;;;;;0.65;0.47;;;;;;;;;;10469451;28;20178;-73
2022/06/22 12:00:48;;;;;;;0.93;0.40;;;;;;;;;;10463426;28;20795;-73
2022/06/22 12:06:16;;;;;;;0.50;0.50;;;;;;;;;;10475241;28;20183;-73
2022/06/22 12:11:37;;;;;;;0.50;0.50;;;;;;;;;;10469389;28;20882;-73
2022/06/22 12:16:38;;;;;;;0.52;0.52;;;;;;;;;;10471033;28;20198;-73
2022/06/22 12:21:49;;;;;;;1.65;0.40;;;;;;;;;;10469172;28;20185;-73
2022/06/22 12:27:12;;;;;;;2.10;0.60;;;;;;;;;;10472414;28;20332;-73
2022/06/22 12:32:19;;;;;;;0.50;0.40;;;;;;;;;;10465932;28;20225;-73
2022/06/22 12:37:26;;;;;;;1.35;0.47;;;;;;;;;;10465970;28;20198;-73
2022/06/22 12:42:45;;;;;;;0.40;0.40;;;;;;;;;;10467467;28;20900;-73
2022/06/22 12:47:52;;;;;;;1.20;0.60;;;;;;;;;;10468454;28;20808;-74
2022/06/22 12:52:57;;;;;;;0.40;0.40;;;;;;;;;;10465193;28;20209;-73
2022/06/22 12:58:03;;;;;;;1.33;0.45;;;;;;;;;;10465786;28;20251;-73
2022/06/22 13:03:04;;;;;;;0.60;0.60;;;;;;;;;;10492408;28;20206;-74
2022/06/22 13:08:08;;;;;;;0.50;0.50;;;;;;;;;;10477392;28;20197;-73
2022/06/22 13:13:22;;;;;;;1.55;0.50;;;;;;;;;;10477208;28;20826;-73
2022/06/22 13:18:34;;;;;;;0.70;0.45;;;;;;;;;;10474167;28;20202;-74
2022/06/22 13:23:47;;;;;;;0.73;0.55;;;;;;;;;;10477151;28;20809;-73
2022/06/22 13:28:59;;;;;;;0.47;0.47;;;;;;;;;;10476462;28;20708;-73
2022/06/22 13:34:05;;;;;;;0.60;0.60;;;;;;;;;;10453922;28;20282;-73
2022/06/22 13:39:09;;;;;;;0.60;0.50;;;;;;;;;;10464707;28;20193;-73
2022/06/22 13:44:20;;;;;;;0.73;0.70;;;;;;;;;;10475239;28;20684;-74
2022/06/22 13:49:22;;;;;;;0.50;0.50;;;;;;;;;;10475406;28;20233;-73
2022/06/22 13:54:35;;;;;;;0.35;0.35;;;;;;;;;;10477158;28;20262;-73
2022/06/22 13:59:56;;;;;;;0.47;0.47;;;;;;;;;;10476900;28;20202;-73
2022/06/22 14:05:00;;;;;;;0.45;0.45;;;;;;;;;;10478049;27;20232;-73
2022/06/22 14:10:18;;;;;;;1.35;0.50;;;;;;;;;;10468172;28;20298;-74
2022/06/22 14:15:19;;;;;;;0.95;0.50;;;;;;;;;;10467699;28;20409;-73
2022/06/22 14:20:34;;;;;;;2.88;0.52;;;;;;;;;;10469824;28;20201;-73
2022/06/22 14:25:41;;;;;;;1.48;0.40;;;;;;;;;;10473681;28;20594;-74
2022/06/22 14:31:02;;;;;;;1.13;0.40;;;;;;;;;;10460949;28;20716;-74
2022/06/22 14:36:20;;;;;;;0.40;0.40;;;;;;;;;;10465080;28;20284;-73
2022/06/22 14:41:37;;;;;;;0.50;0.50;;;;;;;;;;10476005;28;20178;-74
2022/06/22 14:46:40;;;;;;;2.05;0.52;;;;;;;;;;10471405;28;20197;-74
2022/06/22 14:51:55;;;;;;;1.30;0.55;;;;;;;;;;10472105;28;20382;-73
2022/06/22 14:56:59;;;;;;;0.50;0.50;;;;;;;;;;10474949;28;20237;-73
2022/06/22 15:02:07;;;;;;;1.63;0.50;;;;;;;;;;10456045;28;20265;-73
2022/06/22 15:07:18;;;;;;;0.40;0.40;;;;;;;;;;10472280;28;20202;-74
2022/06/22 15:18:00;;;;;;;0.63;0.40;;;;;;;;;;10513150;28;20213;-74
2022/06/22 15:23:05;;;;;;;0.40;0.40;;;;;;;;;;10508286;28;20181;-74
2022/06/22 15:28:16;;;;;;;0.98;0.40;;;;;;;;;;10494943;28;20222;-73
2022/06/22 15:33:20;;;;;;;1.85;0.43;;;;;;;;;;10456795;28;20304;-73
2022/06/22 15:38:21;;;;;;;0.40;0.40;;;;;;;;;;10469643;28;21174;-73
2022/06/22 15:43:31;;;;;;;0.40;0.40;;;;;;;;;;10472903;28;20236;-73
2022/06/22 15:48:40;;;;;;;0.60;0.60;;;;;;;;;;10464948;28;20197;-73
2022/06/22 15:53:46;;;;;;;1.63;0.40;;;;;;;;;;10474330;28;20201;-73
2022/06/22 15:58:55;;;;;;;1.58;0.60;;;;;;;;;;10472703;28;20198;-74
2022/06/22 16:04:07;;;;;;;0.63;0.35;;;;;;;;;;10437675;28;20209;-73
2022/06/22 16:09:11;;;;;;;1.02;0.70;;;;;;;;;;10473056;28;20593;-74
2022/06/22 16:14:19;;;;;;;1.20;0.50;;;;;;;;;;10475181;28;20276;-73
2022/06/22 16:19:27;;;;;;;1.08;0.57;;;;;;;;;;10467960;28;20198;-73
2022/06/22 16:24:42;;;;;;;1.45;0.50;;;;;;;;;;10466981;28;20178;-73
2022/06/22 16:29:48;;;;;;;0.57;0.57;;;;;;;;;;10497370;28;20251;-73
2022/06/22 16:35:08;;;;;;;1.00;0.50;;;;;;;;;;10546293;28;20630;-73
2022/06/22 16:40:17;;;;;;;1.42;0.60;;;;;;;;;;10558678;28;20291;-73
2022/06/22 16:45:18;;;;;;;0.65;0.65;;;;;;;;;;10561946;28;20169;-73
2022/06/22 16:50:23;;;;;;;1.33;0.80;;;;;;;;;;10558925;27;20205;-73
2022/06/22 16:55:31;;;;;;;0.50;0.50;;;;;;;;;;10540352;28;20224;-74
2022/06/22 17:00:50;;;;;;;0.65;0.50;;;;;;;;;;10549401;28;20362;-73
2022/06/22 17:05:56;;;;;;;1.33;0.60;;;;;;;;;;10554210;28;20185;-73
2022/06/22 17:11:02;;;;;;;1.10;0.60;;;;;;;;;;10562490;27;20208;-74
2022/06/22 17:16:21;;;;;;;1.75;0.50;;;;;;;;;;10560692;28;20250;-73
2022/06/22 17:21:41;;;;;;;0.73;0.50;;;;;;;;;;10563734;28;20180;-74
2022/06/22 17:26:48;;;;;;;0.47;0.47;;;;;;;;;;10561203;28;20224;-74
2022/06/22 17:31:52;;;;;;;0.50;0.50;;;;;;;;;;10548173;27;20232;-74
2022/06/22 17:37:03;;;;;;;1.15;0.60;;;;;;;;;;10557765;28;20204;-73
2022/06/22 17:42:04;;;;;;;0.60;0.50;;;;;;;;;;10559000;27;20178;-73
2022/06/22 17:47:14;;;;;;;2.58;0.60;;;;;;;;;;10557057;28;20193;-73
2022/06/22 17:52:26;;;;;;;0.70;0.70;;;;;;;;;;10541127;28;20201;-74
2022/06/22 17:57:28;;;;;;;0.77;0.50;;;;;;;;;;10559998;27;20203;-73
2022/06/22 18:02:35;;;;;;;0.75;0.68;;;;;;;;;;10531667;28;20217;-73
2022/06/22 18:07:38;;;;;;;0.50;0.50;;;;;;;;;;10556642;27;20188;-73
2022/06/22 18:12:41;;;;;;;0.70;0.70;;;;;;;;;;10552089;27;20204;-73
2022/06/22 18:17:49;;;;;;;1.58;0.50;;;;;;;;;;10540193;28;20189;-73
2022/06/22 18:22:52;;;;;;;0.90;0.70;;;;;;;;;;10555417;27;20177;-72
2022/06/22 18:27:57;;;;;;;1.48;0.75;;;;;;;;;;10560837;27;20243;-72
2022/06/22 18:33:02;;;;;;;1.17;0.52;;;;;;;;;;10545425;27;20357;-72
2022/06/22 18:38:08;;;;;;;0.65;0.50;;;;;;;;;;10560417;27;20231;-72
2022/06/22 18:43:17;;;;;;;1.55;0.75;;;;;;;;;;10555814;27;20176;-72
2022/06/22 18:48:34;;;;;;;0.98;0.70;;;;;;;;;;10559185;27;20201;-72
2022/06/22 18:53:39;;;;;;;1.67;0.68;;;;;;;;;;10541990;27;20210;-72
2022/06/22 18:58:44;;;;;;;1.63;0.60;;;;;;;;;;10560426;27;20196;-72
2022/06/22 19:04:02;;;;;;;1.80;0.90;;;;;;;;;;10546615;27;20754;-72
2022/06/22 19:09:13;;;;;;;1.40;0.70;;;;;;;;;;10557099;27;20220;-75
2022/06/22 19:14:15;;;;;;;1.30;0.60;;;;;;;;;;10561707;27;20177;-74
2022/06/22 19:19:31;;;;;;;1.23;0.60;;;;;;;;;;10523051;27;20197;-74
2022/06/22 19:24:47;;;;;;;3.58;0.75;;;;;;;;;;10560214;27;20633;-74
2022/06/22 19:29:49;;;;;;;1.17;0.60;;;;;;;;;;10516030;28;20315;-74
2022/06/22 19:34:58;;;;;;;0.85;0.65;;;;;;;;;;10518907;28;20205;-74
2022/06/22 19:40:17;;;;;;;1.30;0.73;;;;;;;;;;10520289;28;20229;-74
2022/06/22 19:45:36;;;;;;;2.92;1.00;;;;;;;;;;10517737;28;20177;-74
2022/06/22 19:50:56;;;;;;;0.75;0.75;;;;;;;;;;10515585;28;20764;-71
2022/06/22 19:56:07;;;;;;;0.70;0.70;;;;;;;;;;10515833;28;20227;-72
2022/06/22 20:01:11;;;;;;;1.52;0.82;;;;;;;;;;10496667;28;20252;-71
2022/06/22 20:06:15;;;;;;;2.83;0.68;;;;;;;;;;10510572;28;20202;-71
2022/06/22 20:11:18;;;;;;;4.80;0.80;;;;;;;;;;10515497;28;20572;-71
2022/06/22 20:16:25;;;;;;;0.77;0.77;;;;;;;;;;10525984;28;20202;-71
2022/06/22 20:21:37;;;;;;;0.80;0.80;;;;;;;;;;10521160;28;20192;-71
2022/06/22 20:26:48;;;;;;;1.33;0.85;;;;;;;;;;10525027;28;20335;-71
2022/06/22 20:31:49;;;;;;;1.52;1.10;;;;;;;;;;10518723;28;20220;-71
2022/06/22 20:36:50;;;;;;;1.60;1.20;;;;;;;;;;10524877;28;20266;-71
2022/06/22 20:41:54;;;;;;;2.35;1.00;;;;;;;;;;10519327;28;20941;-71
2022/06/22 20:47:12;;;;;;;0.82;0.82;;;;;;;;;;10527588;28;20206;-70
2022/06/22 20:52:16;;;;;;;0.90;0.90;;;;;;;;;;10522288;28;20737;-71
2022/06/22 20:57:21;;;;;;;1.00;1.00;;;;;;;;;;10504165;28;20278;-71
2022/06/22 21:02:43;;;;;;;0.98;0.90;;;;;;;;;;10481660;28;20210;-71
2022/06/22 21:07:46;;;;;;;1.10;1.10;;;;;;;;;;10520938;28;21089;-71
2022/06/22 21:13:17;;;;;;;1.65;1.00;;;;;;;;;;10524181;28;20217;-71
2022/06/22 21:18:25;;;;;;;1.17;0.95;;;;;;;;;;10503923;28;20201;-71
2022/06/22 21:23:31;;;;;;;2.53;1.10;;;;;;;;;;10523360;28;20186;-72
2022/06/22 21:28:32;;;;;;;1.25;1.00;;;;;;;;;;10516223;28;20549;-71
2022/06/22 21:33:33;;;;;;;1.25;0.85;;;;;;;;;;10501347;28;20292;-71
2022/06/22 21:38:58;;;;;;;1.77;1.17;;;;;;;;;;10504637;28;20232;-72
2022/06/22 21:44:08;;;;;;;0.70;0.70;;;;;;;;;;10501049;28;20190;-72
2022/06/22 21:49:21;;;;;;;0.90;0.90;;;;;;;;;;10516723;28;20211;-72
2022/06/22 21:54:25;;;;;;;1.35;0.85;;;;;;;;;;10507539;28;20185;-72
2022/06/22 21:59:49;;;;;;;0.80;0.80;;;;;;;;;;10492510;28;20251;-72
2022/06/22 22:04:57;;;;;;;0.70;0.70;;;;;;;;;;10494452;28;20224;-72
2022/06/22 22:10:10;;;;;;;0.70;0.70;;;;;;;;;;10514699;28;20201;-72
2022/06/22 22:15:14;;;;;;;0.68;0.68;;;;;;;;;;10512077;28;20181;-72
2022/06/22 22:20:30;;;;;;;1.30;0.73;;;;;;;;;;10517034;28;20322;-72
2022/06/22 22:25:37;;;;;;;0.80;0.80;;;;;;;;;;10517371;28;20254;-72
2022/06/22 22:30:42;;;;;;;2.92;0.60;;;;;;;;;;10465996;28;20222;-72
2022/06/22 22:35:44;;;;;;;0.50;0.50;;;;;;;;;;10485215;28;20236;-72
2022/06/22 22:40:56;;;;;;;2.10;0.68;;;;;;;;;;10518747;28;21262;-72
2022/06/22 22:46:02;;;;;;;1.50;0.70;;;;;;;;;;10515104;28;20173;-72
2022/06/22 22:51:03;;;;;;;1.48;0.88;;;;;;;;;;10509985;28;20362;-72
2022/06/22 22:56:05;;;;;;;0.80;0.80;;;;;;;;;;10514099;28;20205;-72
2022/06/22 23:01:21;;;;;;;2.15;0.85;;;;;;;;;;10494596;28;20213;-72
2022/06/22 23:06:22;;;;;;;0.82;0.82;;;;;;;;;;10513596;28;20201;-72
2022/06/22 23:11:27;;;;;;;0.80;0.80;;;;;;;;;;10513379;28;20209;-72
2022/06/22 23:16:39;;;;;;;1.00;1.00;;;;;;;;;;10502661;28;21112;-72
2022/06/22 23:21:42;;;;;;;1.00;1.00;;;;;;;;;;10513903;28;20689;-72
2022/06/22 23:26:46;;;;;;;2.10;1.10;;;;;;;;;;10490504;28;20237;-72
2022/06/22 23:31:49;;;;;;;2.83;1.20;;;;;;;;;;10469839;28;20291;-72
2022/06/22 23:36:50;;;;;;;1.63;1.58;;;;;;;;;;10503384;28;20204;-72
2022/06/22 23:42:03;;;;;;;1.45;1.40;;;;;;;;;;10508394;28;20186;-72
2022/06/22 23:52:35;;;;;;;1.50;1.48;;;;;;;;;;10504642;28;20205;-72
2022/06/22 23:57:38;;;;;;;2.22;1.67;;;;;;;;;;10492072;28;20284;-72
